Wednesday, January 17, 2018, 4:47 PM EST
Back to Local

K40B, Clayton Lake

Location: Ashland, ME, United States Lat: 46.617
Local Time: 4:47 PM EST (21:47 GMT) Lon: -69.533
Time Zone: US/Eastern Elev: 1030 ft

Show me the last for .
Show Coded

Time T Td Feel RH Dir Speed Gust Alt SLP Vis Weather Sky Remarks
2018-01-17 16:17 18 15 - 88 - Calm - 30.08 30.18 0 None
2018-01-17 15:16 23 14 19 68 Variable 3 - 30.10 30.19 0 None
2018-01-17 14:16 26 14 - 61 - Calm - 30.12 30.22 0 None
2018-01-17 13:16 25 14 21 61 Variable 3 - 30.14 30.25 0 6-hr Min Temp (1pm): 11.1°F
6-hr Max Temp (1pm): 25.3°F
2018-01-17 12:16 25 14 18 61 Variable 6 - 30.18 30.29 0 None
2018-01-17 11:16 24 15 12 67 Variable 6 13 30.22 30.34 0 None
2018-01-17 10:16 18 13 - 78 - Calm - 30.25 30.38 0 None
2018-01-17 09:16 13 9 - 86 - Calm - 30.27 30.40 0 None
2018-01-17 08:16 11 8 - 86 - Calm - 30.28 30.41 0 None
2018-01-17 07:16 12 9 - 87 - Calm - 30.27 30.40 0 24-hr Precip Total (7am): 0.01"
6-hr Min Temp (7am): 3.0°F
6-hr Max Temp (7am): 12.4°F
2018-01-17 06:16 12 9 - 88 - Calm - 30.28 30.42 0 None
2018-01-17 05:16 9 6 - 86 - Calm - 30.28 30.42 0 None
2018-01-17 04:16 8 5 - 84 - Calm - 30.29 30.42 0 None
2018-01-17 03:16 7 3 - 85 - Calm - 30.30 30.44 0 None
2018-01-17 02:16 5 2 - 84 - Calm - 30.31 30.44 0 None
2018-01-17 01:16 3 -1 - 84 - Calm - 30.30 30.42 0 1-hr Precip Total: Trace
6-hr Precip Total (1am): 0.01"
6-hr Min Temp (1am): -2.4°F
6-hr Max Temp (1am): 4.6°F
2018-01-17 00:16 2 -2 - 84 - Calm - 30.30 30.43 0 24-hr Min Temp (12am): -2.4°F
24-hr Max Temp (12am): 18.7°F
2018-01-16 23:16 -1 -5 - 83 - Calm - 30.33 30.45 0 None
2018-01-16 22:16 -1 -5 - 84 - Calm - 30.33 30.45 0 6-hr Precip Total (10pm): 0.00"
2018-01-16 21:16 0 -3 - 83 - Calm - 30.34 30.45 0 1-hr Precip Total: Trace
2018-01-16 20:16 2 -2 - 82 - Calm - 30.34 30.46 0 None
2018-01-16 19:16 4 1 - 84 - Calm - 30.35 30.47 0 6-hr Min Temp (7pm): 3.7°F
6-hr Max Temp (7pm): 18.7°F
2018-01-16 18:16 6 3 - 86 - Calm - 30.35 30.47 0 None
2018-01-16 17:16 10 6 - 87 - Calm - 30.34 30.46 0 None

Support USWX by starting your Amazon purchase here.